METAR Data
IDs: Format: Raw Decoded Include TAF

Data at: 1320 UTC 07 Jul 2020

KSNH 071315Z AUTO 00000KT 10SM CLR 25/23 A3000 RMK A01
KSNH 071255Z AUTO 00000KT 5SM BR FEW002 24/23 A3000 RMK A01
KSNH 071235Z AUTO 00000KT 10SM CLR 23/22 A2999 RMK A01
KSNH 071215Z AUTO 00000KT 6SM BR FEW060 SCT070 24/22 A2999 RMK A01
KSNH 071155Z AUTO 00000KT 10SM BKN060 BKN070 23/22 A2999 RMK A01
KSNH 071135Z AUTO 00000KT 6SM BR FEW060 22/21 A2999 RMK A01
KSNH 071115Z AUTO 00000KT 9SM CLR 21/21 A2998 RMK A01
KSNH 071055Z AUTO 00000KT 7SM CLR 21/21 A2997 RMK A01
KSNH 071035Z AUTO 00000KT 8SM CLR 21/21 A2996 RMK A01
KSNH 071015Z AUTO 00000KT 10SM CLR 21/21 A2996 RMK A01
KSNH 070955Z AUTO 00000KT 8SM FEW049 21/21 A2996 RMK A01
KSNH 070935Z AUTO 20005KT 10SM FEW049 FEW060 22/22 A2995 RMK A01
KSNH 070915Z AUTO 00000KT 8SM CLR 21/21 A2995 RMK A01
KSNH 070855Z AUTO 00000KT 8SM SCT060 21/21 A2995 RMK A01
KSNH 070835Z AUTO 00000KT 8SM BKN060 21/21 A2995 RMK A01
KSNH 070815Z AUTO 00000KT 9SM BKN060 22/21 A2995 RMK A01
KSNH 070755Z AUTO 00000KT 5SM BR FEW036 FEW050 FEW060 22/21 A2995 RMK A01
KSNH 070735Z AUTO 00000KT 7SM FEW033 FEW040 SCT055 22/22 A2995 RMK A01
KSNH 070715Z AUTO 00000KT 9SM CLR 22/22 A2995 RMK A01
KSNH 070655Z AUTO 00000KT 8SM CLR 22/22 A2995 RMK A01
KSNH 070635Z AUTO 00000KT 9SM CLR 22/22 A2995 RMK A01
KSNH 070615Z AUTO 00000KT 8SM CLR 23/22 A2996 RMK A01
KSNH 070555Z AUTO 00000KT 10SM FEW070 23/23 A2996 RMK A01
KSNH 070535Z AUTO 00000KT 10SM FEW070 23/22 A2997 RMK A01
KSNH 070515Z AUTO 00000KT 10SM CLR 23/23 A2998 RMK A01
KSNH 070455Z AUTO 36004KT 7SM FEW003 23/22 A2998 RMK A01
KSNH 070435Z AUTO 00000KT 10SM CLR 23/23 A2998 RMK A01
KSNH 070415Z AUTO 00000KT 9SM CLR 23/23 A2997 RMK A01
KSNH 070355Z AUTO 00000KT 9SM CLR 23/23 A2997 RMK A01
KSNH 070335Z AUTO 00000KT 10SM CLR 24/23 A2997 RMK A01
KSNH 070315Z AUTO 00000KT 10SM CLR 23/23 A2996 RMK A01
KSNH 070255Z AUTO 00000KT 8SM CLR 24/23 A2995 RMK A01
KSNH 070235Z AUTO 00000KT 10SM CLR 25/24 A2995 RMK A01
KSNH 070215Z AUTO 00000KT 10SM CLR 24/24 A2994 RMK A01
KSNH 070155Z AUTO 00000KT 10SM CLR 25/24 A2994 RMK A01
KSNH 070135Z AUTO 00000KT 10SM CLR 25/24 A2995 RMK A01
KSNH 070115Z AUTO 00000KT 10SM CLR 26/25 A2995 RMK A01
KSNH 070055Z AUTO 00000KT 10SM CLR 28/25 A2994 RMK A01
KSNH 070035Z AUTO 00000KT 10SM CLR 29/24 A2994 RMK A01
KSNH 070015Z AUTO 00000KT 10SM CLR 30/24 A2993 RMK A01
KSNH 062355Z AUTO 10004KT 10SM CLR 30/23 A2993 RMK A01
KSNH 062335Z AUTO 10003KT 10SM CLR 31/23 A2993 RMK A01
KSNH 062315Z AUTO VRB04KT 10SM CLR 31/23 A2992 RMK A01
KSNH 062255Z AUTO 06005KT 10SM CLR 31/23 A2992 RMK A01
KSNH 062235Z AUTO 08004KT 10SM CLR 31/23 A2993 RMK A01
KSNH 062215Z AUTO 05004KT 10SM CLR 31/23 A2993 RMK A01
KSNH 062155Z AUTO 06006KT 10SM CLR 31/22 A2994 RMK A01
KSNH 062135Z AUTO 05007KT 10SM CLR 31/22 A2994 RMK A01
KSNH 062115Z AUTO 11006KT 10SM CLR 31/22 A2994 RMK A01
KSNH 062055Z AUTO 08004KT 10SM CLR 32/22 A2994 RMK A01
KSNH 062035Z AUTO 06006KT CLR 32/23 A2994 RMK A01
KSNH 062015Z AUTO 07005KT 10SM CLR 32/22 A2994 RMK A01
KSNH 061955Z AUTO 06005KT 10SM CLR 32/22 A2995 RMK A01
KSNH 061935Z AUTO 06008KT 10SM CLR 32/23 A2995 RMK A01
KSNH 061915Z AUTO 07007KT 050V110 10SM CLR 32/24 A2996 RMK A01
KSNH 061855Z AUTO 10005KT 10SM FEW049 31/23 A2996 RMK A01
KSNH 061835Z AUTO 13006KT 9SM CLR 32/22 A2996 RMK A01
KSNH 061815Z AUTO VRB05KT 8SM CLR 32/23 A2997 RMK A01
KSNH 061755Z AUTO 14005KT 8SM FEW040 SCT070 SCT080 31/23 A2997 RMK A01
KSNH 061735Z AUTO 00000KT 10SM FEW028 BKN039 BKN055 31/23 A2998 RMK A01
KSNH 061715Z AUTO 09004KT 10SM FEW028 FEW034 SCT055 31/24 A2998 RMK A01
KSNH 061655Z AUTO 00000KT 10SM CLR 31/25 A2998 RMK A01
KSNH 061635Z AUTO 00000KT 10SM CLR 30/25 A2998 RMK A01
KSNH 061615Z AUTO VRB05KT 10SM CLR 29/25 A2998 RMK A01
KSNH 061555Z AUTO VRB04KT 10SM CLR 29/24 A2999 RMK A01
KSNH 061535Z AUTO 14004KT 10SM CLR 28/24 A2999 RMK A01
KSNH 061515Z AUTO 07004KT 10SM CLR 28/24 A2999 RMK A01
KSNH 061455Z AUTO 00000KT 10SM CLR 27/23 A2999 RMK A01
KSNH 061435Z AUTO 00000KT 10SM CLR 27/23 A2999 RMK A01
KSNH 061415Z AUTO 00000KT 10SM CLR 26/23 A2999 RMK A01
KSNH 061355Z AUTO 00000KT 10SM CLR 25/22 A2999 RMK A01
KSNH 061335Z AUTO 00000KT 10SM CLR 25/22 A2999 RMK A01
KSNH 061315Z AUTO 02003KT 10SM CLR 24/22 A2998 RMK A01
KSNH 061255Z AUTO 00000KT 10SM CLR 24/21 A2998 RMK A01
KSNH 061235Z AUTO 00000KT 10SM CLR 23/21 A2998 RMK A01
KSNH 061215Z AUTO 00000KT 10SM CLR 23/21 A2997 RMK A01
KSNH 061155Z AUTO 00000KT 10SM CLR 22/21 A2997 RMK A01
KSNH 061135Z AUTO 00000KT 10SM CLR 22/21 A2996 RMK A01
KSNH 061115Z AUTO 00000KT 10SM CLR 22/21 A2996 RMK A01
KSNH 061055Z AUTO 00000KT 10SM CLR 22/21 A2996 RMK A01
KSNH 061035Z AUTO 00000KT 10SM FEW055 22/21 A2996 RMK A01
KSNH 061015Z AUTO 00000KT 10SM CLR 22/21 A2995 RMK A01
KSNH 060955Z AUTO 00000KT 10SM FEW034 FEW044 FEW055 22/21 A2994 RMK A01
KSNH 060935Z AUTO 00000KT 10SM FEW120 22/21 A2993 RMK A01
KSNH 060915Z AUTO 00000KT 10SM SCT100 BKN120 22/21 A2993 RMK A01
KSNH 060855Z AUTO 00000KT 10SM FEW050 SCT080 BKN100 22/21 A2993 RMK A01
KSNH 060835Z AUTO 00000KT 10SM FEW050 SCT075 OVC095 22/21 A2991 RMK A01
KSNH 060815Z AUTO 01003KT 10SM FEW038 FEW055 BKN090 22/21 A2991 RMK A01
KSNH 060755Z AUTO 00000KT 10SM FEW034 FEW041 SCT100 22/21 A2991 RMK A01
KSNH 060735Z AUTO 00000KT 10SM FEW048 BKN110 22/21 A2991 RMK A01
KSNH 060715Z AUTO 00000KT 10SM BKN048 22/21 A2991 RMK A01
KSNH 060655Z AUTO 00000KT 10SM BKN047 22/21 A2991 RMK A01
KSNH 060635Z AUTO 00000KT 10SM CLR 22/21 A2992 RMK A01
KSNH 060615Z AUTO 01003KT 10SM FEW046 SCT055 22/21 A2992 RMK A01
KSNH 060555Z AUTO 00000KT 10SM FEW050 SCT055 22/21 A2992 RMK A01
KSNH 060535Z AUTO 05003KT 10SM SCT050 22/21 A2993 RMK A01
KSNH 060515Z AUTO 00000KT 10SM SCT050 23/21 A2993 RMK A01
KSNH 060455Z AUTO 00000KT 10SM CLR 23/21 A2993 RMK A01
KSNH 060435Z AUTO 00000KT 10SM FEW055 23/21 A2992 RMK A01
KSNH 060415Z AUTO 00000KT 10SM FEW060 FEW120 23/21 A2991 RMK A01
KSNH 060355Z AUTO 18004KT 10SM FEW065 SCT100 BKN120 24/21 A2991 RMK A01
KSNH 060335Z AUTO 00000KT 10SM FEW100 SCT120 24/21 A2992 RMK A01
KSNH 060315Z AUTO VRB03KT 10SM CLR 24/21 A2993 RMK A01
KSNH 060255Z AUTO 14007KT 120V180 10SM FEW050 FEW070 SCT090 24/21 A2994 RMK A01
KSNH 060235Z AUTO 15007KT 110V170 10SM SCT090 SCT110 24/22 A2995 RMK A01
KSNH 060215Z AUTO 00000KT 10SM FEW110 24/23 A2994 RMK A01
KSNH 060155Z AUTO 00000KT 10SM CLR 24/23 A2993 RMK A01
KSNH 060135Z AUTO 00000KT 10SM CLR 24/23 A2993 RMK A01